This is the latest recevied weather packets stored in our database for station/object 9W2CEW-1. If no packets are shown the sender has not sent any weather packets the latest 10 day(s).
| Time | Temp. | Humidity | Pressure | Rain* | Wind** | Luminosity | Snow |
|---|---|---|---|---|---|---|---|
| 1787609303 | 36.67° C | 44% | 1005.4 hPa | - | - | - | - |
| 1787609186 | 36.67° C | 39% | 1004.8 hPa | - | - | - | - |
| 1787608401 | 36.11° C | 44% | 1005.1 hPa | - | - | - | - |
| 1787607501 | 35° C | 49% | 1005 hPa | - | - | - | - |
| 1787607449 | 35.56° C | 41% | 1004.7 hPa | - | - | - | - |
| 1787606601 | 35° C | 47% | 1004.9 hPa | - | - | - | - |
| 1787605701 | 34.44° C | 49% | 1004.9 hPa | - | - | - | - |
| 1787604801 | 33.89° C | 49% | 1004.8 hPa | - | - | - | - |
| 1787604665 | 35.56° C | 40% | 1004.4 hPa | - | - | - | - |
| 1787603901 | 33.33° C | 50% | 1004.8 hPa | - | - | - | - |
| 1787603001 | 33.33° C | 48% | 1004.6 hPa | - | - | - | - |
| 1787602102 | 33.89° C | 47% | 1004.6 hPa | - | - | - | - |
| 1787601202 | 35.56° C | 44% | 1004.5 hPa | - | - | - | - |
| 1787600303 | 36.67° C | 41% | 1004.5 hPa | - | - | - | - |
| 1787599402 | 36.67° C | 39% | 1004.6 hPa | - | - | - | - |
| 1787598609 | 36.11° C | 37% | 1003.5 hPa | - | - | - | - |
| 1787598502 | 35° C | 42% | 1004.7 hPa | - | - | - | - |
| 1787597602 | 35.56° C | 42% | 1004.9 hPa | - | - | - | - |
| 1787596904 | 36.11° C | 37% | 1003.5 hPa | - | - | - | - |
| 1787596701 | 36.11° C | 41% | 1005 hPa | - | - | - | - |
| 1787595802 | 36.67° C | 40% | 1005 hPa | - | - | - | - |
| 1787594902 | 36.67° C | 39% | 1005.2 hPa | - | - | - | - |
| 1787594001 | 37.22° C | 39% | 1005.5 hPa | - | - | - | - |
| 1787593101 | 36.67° C | 40% | 1005.5 hPa | - | - | - | - |
| 1787592201 | 36.67° C | 39% | 1005.8 hPa | - | - | - | - |
* Rain since midnight (hover to see other rain measurements)
** Current wind speed in m/s (hover to see current wind gust speed)